createdAt,value
2022-11-22T00:00:49.508Z,-1.62
2022-11-22T00:03:18.341Z,-1.54
2022-11-22T00:05:46.095Z,-1.55
2022-11-22T00:08:13.897Z,-1.44
2022-11-22T00:10:42.999Z,-1.41
2022-11-22T00:13:10.873Z,-1.30
2022-11-22T00:15:38.597Z,-1.23
2022-11-22T00:18:06.428Z,-1.17
2022-11-22T00:20:34.986Z,-1.16
2022-11-22T00:23:02.770Z,-1.13
2022-11-22T00:25:30.503Z,-1.04
2022-11-22T00:27:59.636Z,-1.23
2022-11-22T00:30:27.424Z,-1.10
2022-11-22T00:32:55.110Z,-1.07
2022-11-22T00:35:23.081Z,-1.23
2022-11-22T00:37:50.797Z,-1.44
2022-11-22T00:40:18.694Z,-1.57
2022-11-22T00:42:46.427Z,-1.58
2022-11-22T00:45:15.607Z,-1.59
2022-11-22T00:47:43.322Z,-1.57
2022-11-22T00:50:11.698Z,-1.66
2022-11-22T00:52:39.425Z,-1.71
2022-11-22T00:55:08.302Z,-1.68
2022-11-22T00:57:36.023Z,-1.67
2022-11-22T01:00:04.003Z,-1.61
2022-11-22T01:02:33.212Z,-1.58
2022-11-22T01:05:00.956Z,-1.65
2022-11-22T01:07:28.857Z,-1.66
2022-11-22T01:09:56.642Z,-1.65
2022-11-22T01:12:24.457Z,-1.62
2022-11-22T01:14:52.118Z,-1.57
2022-11-22T01:17:19.972Z,-1.59
2022-11-22T01:19:49.092Z,-1.60
2022-11-22T01:22:16.937Z,-1.54
2022-11-22T01:24:44.705Z,-1.59
2022-11-22T01:27:12.596Z,-1.67
2022-11-22T01:29:40.416Z,-1.66
2022-11-22T01:32:08.145Z,-1.69
2022-11-22T01:34:36.789Z,-1.66
2022-11-22T01:37:06.039Z,-1.73
2022-11-22T01:39:33.922Z,-1.78
2022-11-22T01:42:01.891Z,-1.81
2022-11-22T01:44:31.720Z,-1.80
2022-11-22T01:47:01.658Z,-1.86
2022-11-22T01:49:33.005Z,-1.80
2022-11-22T01:52:04.127Z,-1.91
2022-11-22T01:54:36.829Z,-1.92
2022-11-22T01:57:08.344Z,-1.90
2022-11-22T01:59:38.759Z,-1.95
2022-11-22T02:02:07.602Z,-2.01
2022-11-22T02:04:36.568Z,-2.02
2022-11-22T02:07:09.921Z,-2.04
2022-11-22T02:09:41.812Z,-2.08
2022-11-22T02:12:11.105Z,-2.05
2022-11-22T02:14:40.158Z,-1.99
2022-11-22T02:17:07.995Z,-1.99
2022-11-22T02:19:43.208Z,-2.06
2022-11-22T02:22:23.280Z,-2.01
2022-11-22T02:24:56.666Z,-2.03
2022-11-22T02:27:26.198Z,-2.03
2022-11-22T02:29:53.990Z,-1.94
2022-11-22T02:32:22.107Z,-2.03
2022-11-22T02:34:51.704Z,-1.94
2022-11-22T02:37:23.873Z,-1.84
2022-11-22T02:39:57.923Z,-1.89
2022-11-22T02:42:29.084Z,-1.97
2022-11-22T02:44:56.864Z,-1.83
2022-11-22T02:47:24.729Z,-1.90
2022-11-22T02:49:53.864Z,-1.96
2022-11-22T02:52:21.911Z,-1.92
2022-11-22T02:54:49.667Z,-1.87
2022-11-22T02:57:17.369Z,-1.90
2022-11-22T02:59:46.448Z,-1.87
2022-11-22T03:02:14.240Z,-1.83
2022-11-22T03:04:41.948Z,-1.89
2022-11-22T03:07:09.716Z,-1.73
2022-11-22T03:09:37.565Z,-1.78
2022-11-22T03:12:05.631Z,-1.70
2022-11-22T03:14:33.381Z,-1.76
2022-11-22T03:17:02.490Z,-1.74
2022-11-22T03:19:30.447Z,-1.71
2022-11-22T03:21:58.363Z,-1.67
2022-11-22T03:24:26.105Z,-1.73
2022-11-22T03:26:53.895Z,-1.69
2022-11-22T03:29:21.611Z,-1.62
2022-11-22T03:31:49.409Z,-1.61
2022-11-22T03:34:18.641Z,-1.61
2022-11-22T03:36:46.505Z,-1.71
2022-11-22T03:39:14.438Z,-1.69
2022-11-22T03:41:42.227Z,-1.74
2022-11-22T03:44:10.039Z,-1.77
2022-11-22T03:46:37.861Z,-1.69
2022-11-22T03:49:05.606Z,-1.68
2022-11-22T03:51:34.820Z,-1.74
2022-11-22T03:54:02.608Z,-1.87
2022-11-22T03:56:30.336Z,-1.86
2022-11-22T03:58:58.205Z,-1.86
2022-11-22T04:01:26.030Z,-1.88
2022-11-22T04:03:53.860Z,-1.81
2022-11-22T04:06:21.574Z,-1.70
2022-11-22T04:08:51.170Z,-1.75
2022-11-22T04:11:19.000Z,-1.78
2022-11-22T04:14:04.097Z,-1.81
2022-11-22T04:16:31.838Z,-1.76
2022-11-22T04:18:59.584Z,-1.74
2022-11-22T04:21:35.376Z,-1.71
2022-11-22T04:24:24.118Z,-1.76
2022-11-22T04:26:52.229Z,-1.81
2022-11-22T04:29:21.027Z,-1.71
2022-11-22T04:32:07.040Z,-1.78
2022-11-22T04:34:35.422Z,-1.87
2022-11-22T04:37:03.694Z,-1.85
2022-11-22T04:39:32.964Z,-1.87
2022-11-22T04:42:18.483Z,-1.75
2022-11-22T04:44:46.694Z,-1.80
2022-11-22T04:47:38.818Z,-1.70
2022-11-22T04:50:29.999Z,-1.67
2022-11-22T04:52:58.186Z,-1.70
2022-11-22T04:55:27.314Z,-1.48
2022-11-22T04:57:59.645Z,-1.54
2022-11-22T05:00:28.527Z,-1.48
2022-11-22T05:02:56.417Z,-1.51
2022-11-22T05:05:24.893Z,-1.58
2022-11-22T05:07:52.741Z,-1.52
2022-11-22T05:10:26.066Z,-1.59
2022-11-22T05:12:57.159Z,-1.48
2022-11-22T05:15:25.143Z,-1.48
2022-11-22T05:17:52.940Z,-1.46
2022-11-22T05:20:20.703Z,-1.44
2022-11-22T05:23:05.926Z,-1.48
2022-11-22T05:25:33.711Z,-1.41
2022-11-22T05:28:02.862Z,-1.35
2022-11-22T05:30:30.603Z,-1.35
2022-11-22T05:32:58.367Z,-1.27
2022-11-22T05:35:26.131Z,-1.30
2022-11-22T05:37:53.954Z,-1.39
2022-11-22T05:40:21.698Z,-1.35
2022-11-22T05:42:49.526Z,-1.30
2022-11-22T05:45:19.039Z,-1.41
2022-11-22T05:47:47.087Z,-1.24
2022-11-22T05:50:14.991Z,-1.35
2022-11-22T05:52:42.957Z,-1.35
2022-11-22T05:55:10.921Z,-1.21
2022-11-22T05:57:38.686Z,-1.11
2022-11-22T06:00:07.658Z,-1.23
2022-11-22T06:02:36.799Z,-1.15
2022-11-22T06:05:04.978Z,-0.95
2022-11-22T06:07:32.816Z,-1.07
2022-11-22T06:10:00.890Z,-1.08
2022-11-22T06:12:28.624Z,-1.03
2022-11-22T06:14:57.096Z,-0.93
2022-11-22T06:17:24.825Z,-0.89
2022-11-22T06:19:53.907Z,-0.82
2022-11-22T06:22:21.857Z,-0.79
2022-11-22T06:24:49.577Z,-0.85
2022-11-22T06:27:17.372Z,-0.88
2022-11-22T06:29:45.111Z,-1.00
2022-11-22T06:32:13.334Z,-1.06
2022-11-22T06:34:41.154Z,-1.06
2022-11-22T06:37:10.291Z,-0.94
2022-11-22T06:39:38.081Z,-0.97
2022-11-22T06:42:06.141Z,-0.96
2022-11-22T06:44:34.138Z,-0.91
2022-11-22T06:47:01.861Z,-0.90
2022-11-22T06:49:29.775Z,-0.96
2022-11-22T06:51:57.630Z,-0.79
2022-11-22T06:54:26.764Z,-0.77
2022-11-22T06:56:54.573Z,-0.86
2022-11-22T06:59:22.359Z,-0.81
2022-11-22T07:01:50.105Z,-0.71
2022-11-22T07:04:17.854Z,-0.70
2022-11-22T07:06:45.673Z,-0.76
2022-11-22T07:09:13.629Z,-0.87
2022-11-22T07:11:42.789Z,-0.87
2022-11-22T07:14:10.665Z,-0.86
2022-11-22T07:16:39.012Z,-0.78
2022-11-22T07:19:07.763Z,-0.90
2022-11-22T07:21:39.571Z,-0.67
2022-11-22T07:24:08.668Z,-0.72
2022-11-22T07:26:36.447Z,-0.76
2022-11-22T07:29:05.749Z,-0.71
2022-11-22T07:31:34.776Z,-0.64
2022-11-22T07:34:02.518Z,-0.71
2022-11-22T07:36:30.359Z,-0.54
2022-11-22T07:38:58.197Z,-0.47
2022-11-22T07:41:26.066Z,-0.51
2022-11-22T07:43:53.999Z,-0.46
2022-11-22T07:46:26.305Z,-0.33
2022-11-22T07:48:54.217Z,-0.34
2022-11-22T07:51:22.313Z,-0.25
2022-11-22T07:53:50.110Z,-0.36
2022-11-22T07:56:18.379Z,-0.45
2022-11-22T07:58:46.127Z,-0.24
2022-11-22T08:01:16.541Z,-0.21
2022-11-22T08:03:46.173Z,-0.16
2022-11-22T08:06:15.055Z,-0.21
2022-11-22T08:08:43.242Z,-0.30
2022-11-22T08:11:11.593Z,-0.26
2022-11-22T08:13:39.716Z,-0.14
2022-11-22T08:16:09.465Z,0.05
2022-11-22T08:18:38.833Z,0.01
2022-11-22T08:21:09.696Z,-0.04
2022-11-22T08:23:37.876Z,-0.16
2022-11-22T08:26:07.100Z,-0.01
2022-11-22T08:28:34.929Z,-0.17
2022-11-22T08:31:05.326Z,-0.05
2022-11-22T08:33:33.089Z,-0.04
2022-11-22T08:36:00.852Z,-0.08
2022-11-22T08:38:30.072Z,-0.14
2022-11-22T08:40:58.079Z,-0.03
2022-11-22T08:43:26.384Z,0.09
2022-11-22T08:45:56.841Z,-0.02
2022-11-22T08:48:25.026Z,0.02
2022-11-22T08:50:53.457Z,0.03
2022-11-22T08:53:21.925Z,-0.01
2022-11-22T08:55:51.649Z,-0.02
2022-11-22T08:58:19.601Z,0.01
2022-11-22T09:00:47.628Z,-0.14
2022-11-22T09:03:15.450Z,-0.15
2022-11-22T09:08:34.255Z,-0.03
2022-11-22T09:11:07.676Z,-0.03
2022-11-22T09:13:35.761Z,0.06
2022-11-22T09:16:04.245Z,0.16
2022-11-22T09:18:32.233Z,0.10
2022-11-22T09:21:00.468Z,0.11
2022-11-22T09:23:28.317Z,0.10
2022-11-22T09:25:59.695Z,0.20
2022-11-22T09:28:29.779Z,0.23
2022-11-22T09:31:01.724Z,0.19
2022-11-22T09:33:29.598Z,0.19
2022-11-22T09:36:02.034Z,0.25
2022-11-22T09:38:30.258Z,0.20
2022-11-22T09:40:59.252Z,0.14
2022-11-22T09:43:38.827Z,0.14
2022-11-22T09:46:12.440Z,0.24
2022-11-22T09:48:59.464Z,0.44
2022-11-22T09:51:32.325Z,0.46
2022-11-22T09:54:05.134Z,0.62
2022-11-22T09:56:33.967Z,0.70
2022-11-22T09:59:07.008Z,0.73
2022-11-22T10:01:41.109Z,0.79
2022-11-22T10:04:15.157Z,0.82
2022-11-22T10:06:46.516Z,0.80
2022-11-22T10:09:29.342Z,0.73
2022-11-22T10:12:02.409Z,0.77
2022-11-22T10:14:42.648Z,0.88
2022-11-22T10:17:25.115Z,0.84
2022-11-22T10:20:00.553Z,0.89
2022-11-22T10:22:33.862Z,0.79
2022-11-22T10:25:04.773Z,0.79
2022-11-22T10:27:33.967Z,0.87
2022-11-22T10:30:06.268Z,0.85
2022-11-22T10:32:40.343Z,0.88
2022-11-22T10:35:23.984Z,0.88
2022-11-22T10:38:01.008Z,0.81
2022-11-22T10:40:38.575Z,0.82
2022-11-22T10:43:25.495Z,0.86
2022-11-22T10:46:02.926Z,0.82
2022-11-22T10:48:40.797Z,0.85
2022-11-22T10:51:18.706Z,0.83
2022-11-22T10:54:03.586Z,0.91
2022-11-22T10:56:38.180Z,0.86
2022-11-22T10:59:29.341Z,0.97
2022-11-22T11:02:10.814Z,1.05
2022-11-22T11:04:41.567Z,1.02
2022-11-22T11:07:16.229Z,1.08
2022-11-22T11:12:42.188Z,1.12
2022-11-22T11:15:18.636Z,1.12
2022-11-22T11:17:52.421Z,1.23
2022-11-22T11:20:26.471Z,1.32
2022-11-22T11:25:44.221Z,1.39
2022-11-22T11:28:17.662Z,1.41
2022-11-22T11:30:48.606Z,1.45
2022-11-22T11:33:27.288Z,1.45
2022-11-22T11:35:58.154Z,1.46
2022-11-22T11:38:30.885Z,1.43
2022-11-22T11:40:58.962Z,1.37
2022-11-22T11:43:26.928Z,1.51
2022-11-22T11:45:54.741Z,1.54
2022-11-22T11:48:41.066Z,1.45
2022-11-22T11:51:23.230Z,1.44
2022-11-22T11:54:06.830Z,1.42
2022-11-22T11:56:47.087Z,1.58
2022-11-22T11:59:17.799Z,1.51
2022-11-22T12:01:53.188Z,1.48
2022-11-22T12:04:26.975Z,1.48
2022-11-22T12:07:02.836Z,1.42
2022-11-22T12:09:44.142Z,1.41
2022-11-22T12:12:45.577Z,1.45
2022-11-22T12:15:20.453Z,1.54
2022-11-22T12:17:53.818Z,1.46
2022-11-22T12:20:26.513Z,1.50
2022-11-22T12:23:06.833Z,1.49
2022-11-22T12:25:37.649Z,1.44
2022-11-22T12:28:16.841Z,1.47
2022-11-22T12:30:46.247Z,1.68
2022-11-22T12:33:21.671Z,1.67
2022-11-22T12:35:55.040Z,1.84
2022-11-22T12:38:27.759Z,1.82
2022-11-22T12:40:57.846Z,1.73
2022-11-22T12:43:30.007Z,1.66
2022-11-22T12:46:02.423Z,1.71
2022-11-22T12:48:35.719Z,1.59
2022-11-22T12:51:13.441Z,1.57
2022-11-22T12:53:44.934Z,1.61
2022-11-22T12:56:28.483Z,1.76
2022-11-22T12:59:04.980Z,1.79
2022-11-22T13:01:39.944Z,1.77
2022-11-22T13:04:17.296Z,1.76
2022-11-22T13:06:51.398Z,1.73
2022-11-22T13:09:23.180Z,1.89
2022-11-22T13:11:56.537Z,1.95
2022-11-22T13:14:32.616Z,1.93
2022-11-22T13:17:05.056Z,1.84
2022-11-22T13:19:39.009Z,1.76
2022-11-22T13:22:16.702Z,1.71
2022-11-22T13:24:59.465Z,1.71
2022-11-22T13:27:30.788Z,1.76
2022-11-22T13:30:00.451Z,1.80
2022-11-22T13:32:32.060Z,1.83
2022-11-22T13:35:18.463Z,1.84
2022-11-22T13:37:50.693Z,1.70
2022-11-22T13:40:26.229Z,1.68
2022-11-22T13:43:31.227Z,1.57
2022-11-22T13:46:00.734Z,1.59
2022-11-22T13:48:47.365Z,1.75
2022-11-22T13:51:18.588Z,1.70
2022-11-22T13:53:49.612Z,1.68
2022-11-22T13:56:50.306Z,1.57
2022-11-22T13:59:19.314Z,1.64
2022-11-22T14:01:59.129Z,1.67
2022-11-22T14:04:45.148Z,1.75
2022-11-22T14:07:31.919Z,1.74
2022-11-22T14:10:01.999Z,1.86
2022-11-22T14:13:05.837Z,1.80
2022-11-22T14:15:56.804Z,1.77
2022-11-22T14:18:46.930Z,1.75
2022-11-22T14:21:24.947Z,1.71
2022-11-22T14:24:04.604Z,1.84
2022-11-22T14:26:42.546Z,1.82
2022-11-22T14:29:41.193Z,1.73
2022-11-22T14:32:16.796Z,1.70
2022-11-22T14:35:27.918Z,1.74
2022-11-22T14:38:29.057Z,1.69
2022-11-22T14:41:11.534Z,1.67
2022-11-22T14:43:42.257Z,1.58
2022-11-22T14:46:37.214Z,1.77
2022-11-22T14:49:06.553Z,1.75
2022-11-22T14:51:34.660Z,1.73
2022-11-22T14:54:20.717Z,1.72
2022-11-22T14:56:49.441Z,1.69
2022-11-22T15:09:13.960Z,1.64
2022-11-22T15:09:18.207Z,1.69
2022-11-22T15:10:01.372Z,1.68
2022-11-22T15:12:44.130Z,1.81
2022-11-22T15:57:26.816Z,1.81
2022-11-22T15:59:55.698Z,1.71
2022-11-22T16:02:26.240Z,1.69
2022-11-22T16:17:26.233Z,1.79
2022-11-22T16:29:53.371Z,1.75
2022-11-22T16:32:21.147Z,1.78
2022-11-22T16:35:03.062Z,1.84
2022-11-22T16:37:39.699Z,1.70
2022-11-22T16:40:11.761Z,1.65
2022-11-22T16:42:40.586Z,1.71
2022-11-22T16:45:16.420Z,1.73
2022-11-22T16:47:50.642Z,1.80
2022-11-22T16:50:26.270Z,1.79
2022-11-22T16:52:55.218Z,1.74
2022-11-22T16:55:24.470Z,1.78
2022-11-22T16:57:52.186Z,1.74
2022-11-22T17:00:21.483Z,1.69
2022-11-22T17:02:49.272Z,1.72
2022-11-22T17:05:18.236Z,1.74
2022-11-22T17:07:46.872Z,1.70
2022-11-22T17:10:14.872Z,1.72
2022-11-22T17:12:43.213Z,1.67
2022-11-22T17:15:17.168Z,1.78
2022-11-22T17:17:46.255Z,1.74
2022-11-22T17:20:14.229Z,1.78
2022-11-22T17:22:43.259Z,1.75
2022-11-22T17:25:13.337Z,1.66
2022-11-22T17:27:41.181Z,1.62
2022-11-22T17:30:10.376Z,1.61
2022-11-22T17:32:38.095Z,1.65
2022-11-22T17:35:09.958Z,1.61
2022-11-22T17:37:37.707Z,1.70
2022-11-22T17:40:06.420Z,1.77
2022-11-22T17:42:40.927Z,1.76
2022-11-22T17:45:09.436Z,1.75
2022-11-22T17:47:37.169Z,1.74
2022-11-22T17:50:05.585Z,1.74
2022-11-22T17:52:46.627Z,1.76
2022-11-22T17:55:19.292Z,1.86
2022-11-22T17:57:55.763Z,1.83
2022-11-22T18:00:30.823Z,1.79
2022-11-22T18:03:07.876Z,1.73
2022-11-22T18:05:43.172Z,1.77
2022-11-22T18:08:18.293Z,1.84
2022-11-22T18:10:50.246Z,1.78
2022-11-22T18:13:22.895Z,1.88
2022-11-22T18:16:03.537Z,1.77
2022-11-22T18:18:56.293Z,1.83
2022-11-22T18:21:31.704Z,1.84
2022-11-22T18:24:04.395Z,1.74
2022-11-22T18:26:41.552Z,1.74
2022-11-22T18:29:41.249Z,1.80
2022-11-22T18:32:05.739Z,1.84
2022-11-22T18:34:36.734Z,1.77
2022-11-22T18:37:11.052Z,1.80
2022-11-22T18:39:45.020Z,1.78
2022-11-22T18:42:27.079Z,1.75
2022-11-22T18:45:02.149Z,1.86
2022-11-22T18:47:34.489Z,1.85
2022-11-22T18:50:10.931Z,1.86
2022-11-22T18:52:45.415Z,1.83
2022-11-22T18:55:19.151Z,1.96
2022-11-22T18:57:52.323Z,1.83
2022-11-22T19:00:25.077Z,1.81
2022-11-22T19:02:57.045Z,1.74
2022-11-22T19:05:28.454Z,1.76
2022-11-22T19:08:00.988Z,1.74
2022-11-22T19:10:35.973Z,1.75
2022-11-22T19:13:06.719Z,1.77
2022-11-22T19:15:34.673Z,1.76
2022-11-22T19:18:05.743Z,1.90
2022-11-22T19:20:54.076Z,1.82
2022-11-22T19:23:22.847Z,1.86
2022-11-22T19:25:52.824Z,1.89
2022-11-22T19:28:20.543Z,1.88
2022-11-22T19:30:48.395Z,1.75
2022-11-22T19:33:17.108Z,1.83
2022-11-22T19:35:56.265Z,1.82
2022-11-22T19:38:24.035Z,1.86
2022-11-22T19:41:03.296Z,1.82
2022-11-22T19:43:31.160Z,1.89
2022-11-22T19:46:01.900Z,1.94
2022-11-22T19:48:29.864Z,1.77
2022-11-22T19:50:57.690Z,1.77
2022-11-22T19:53:25.931Z,1.82
2022-11-22T19:55:55.018Z,1.83
2022-11-22T19:58:22.819Z,1.88
2022-11-22T20:00:50.628Z,1.78
2022-11-22T20:03:18.450Z,1.92
2022-11-22T20:05:46.222Z,1.90
2022-11-22T20:08:13.944Z,1.82
2022-11-22T20:10:41.676Z,1.73
2022-11-22T20:13:10.904Z,1.74
2022-11-22T20:15:38.685Z,1.75
2022-11-22T20:18:06.689Z,1.73
2022-11-22T20:20:34.416Z,1.77
2022-11-22T20:23:02.163Z,1.75
2022-11-22T20:25:29.948Z,1.71
2022-11-22T20:27:57.882Z,1.69
2022-11-22T20:30:27.031Z,1.72
2022-11-22T20:32:54.817Z,1.71
2022-11-22T20:35:22.509Z,1.75
2022-11-22T20:37:50.219Z,1.78
2022-11-22T20:40:18.047Z,1.77
2022-11-22T20:42:45.785Z,1.61
2022-11-22T20:45:13.526Z,1.67
2022-11-22T20:47:42.639Z,1.59
2022-11-22T20:50:10.757Z,1.67
2022-11-22T20:52:38.472Z,1.60
2022-11-22T20:55:07.261Z,1.54
2022-11-22T20:57:35.593Z,1.65
2022-11-22T21:00:03.347Z,1.63
2022-11-22T21:02:31.043Z,1.59
2022-11-22T21:05:00.113Z,1.63
2022-11-22T21:07:27.844Z,1.53
2022-11-22T21:09:55.693Z,1.50
2022-11-22T21:12:23.449Z,1.54
2022-11-22T21:14:53.735Z,1.55
2022-11-22T21:17:41.923Z,1.59
2022-11-22T21:20:11.789Z,1.59
2022-11-22T21:22:39.637Z,1.70
2022-11-22T21:25:08.470Z,1.68
2022-11-22T21:27:36.231Z,1.61
2022-11-22T21:30:04.587Z,1.57
2022-11-22T21:32:32.849Z,1.45
2022-11-22T21:35:00.592Z,1.55
2022-11-22T21:37:29.731Z,1.70
2022-11-22T21:39:57.447Z,1.57
2022-11-22T21:42:25.152Z,1.54
2022-11-22T21:44:52.921Z,1.39
2022-11-22T21:47:21.500Z,1.39
2022-11-22T21:49:49.732Z,1.30
2022-11-22T21:52:17.493Z,1.23
2022-11-22T21:54:46.582Z,1.22
2022-11-22T21:57:14.299Z,1.25
2022-11-22T21:59:41.988Z,1.20
2022-11-22T22:02:09.860Z,1.10
2022-11-22T22:04:37.637Z,1.03
2022-11-22T22:07:05.467Z,0.98
2022-11-22T22:09:33.963Z,0.93
2022-11-22T22:12:03.163Z,0.98
2022-11-22T22:14:30.910Z,0.99
2022-11-22T22:16:58.641Z,1.13
2022-11-22T22:19:26.367Z,1.08
2022-11-22T22:21:54.120Z,1.03
2022-11-22T22:24:21.893Z,0.92
2022-11-22T22:26:49.624Z,0.86
2022-11-22T22:29:18.706Z,1.14
2022-11-22T22:31:46.456Z,1.07
2022-11-22T22:34:16.237Z,1.08
2022-11-22T22:36:43.985Z,0.91
2022-11-22T22:39:12.375Z,1.00
2022-11-22T22:41:40.136Z,1.06
2022-11-22T22:44:08.195Z,0.88
2022-11-22T22:46:37.264Z,0.86
2022-11-22T22:49:04.991Z,0.92
2022-11-22T22:51:33.657Z,0.90
2022-11-22T22:54:02.029Z,0.88
2022-11-22T22:56:31.610Z,0.90
2022-11-22T22:59:00.806Z,0.83
2022-11-22T23:01:29.569Z,0.72
2022-11-22T23:04:00.711Z,0.78
2022-11-22T23:06:30.739Z,0.90
2022-11-22T23:08:59.194Z,0.87
2022-11-22T23:11:42.646Z,0.88
2022-11-22T23:14:10.602Z,0.81
2022-11-22T23:16:38.881Z,0.88
2022-11-22T23:19:08.801Z,0.75
2022-11-22T23:21:37.148Z,0.71
2022-11-22T23:24:05.967Z,0.71
2022-11-22T23:26:33.845Z,0.69
2022-11-22T23:29:01.586Z,0.71
2022-11-22T23:31:29.500Z,0.70
2022-11-22T23:33:57.584Z,0.65
2022-11-22T23:36:26.658Z,0.60
2022-11-22T23:38:54.415Z,0.70
2022-11-22T23:41:23.832Z,0.76
2022-11-22T23:43:53.644Z,0.80
2022-11-22T23:46:22.121Z,0.82
2022-11-22T23:48:54.759Z,0.99
2022-11-22T23:51:23.226Z,0.85
2022-11-22T23:53:55.435Z,0.75
2022-11-22T23:56:23.887Z,0.73
2022-11-22T23:58:52.919Z,0.70
